Data for 03/13/2017

Time Sea-Level Adjusted Pressure Absolute Pressure Temperature Relative Humidity Dew Point   
(mb) (inHg) (mb) (inHg) (C) (F) (%) (C) (F)
00:05 1023 30.21 852 25.16 1.2 34.1 56 -6.6 20.2
00:10 1023 30.21 852 25.16 1.3 34.4 56 -6.6 20.2
00:15 1023 30.21 852 25.16 1.3 34.3 54 -7 19.5
00:20 1023 30.21 852 25.16 1.4 34.5 53 -7.1 19.2
00:25 1023 30.21 852 25.16 1.5 34.7 52 -7.3 18.9
00:30 1023 30.21 852 25.16 1.5 34.7 52 -7.2 19.1
00:35 1023 30.21 852 25.16 1.6 34.9 53 -6.9 19.6
00:40 1023 30.21 852 25.16 1.6 34.9 52 -7.2 19.1
00:45 1023 30.21 852 25.16 1.7 35 52 -7.1 19.2
00:50 1023 30.21 852 25.16 1.6 35 52 -7.3 18.9
00:55 1023 30.21 852 25.16 1.8 35.2 50 -7.6 18.3
01:00 1023 30.21 852 25.16 2.1 35.8 50 -7.4 18.7
01:05 1023 30.21 852 25.16 2 35.7 50 -7.4 18.7
01:10 1023 30.21 852 25.16 1.9 35.5 51 -7.2 19.1
01:15 1023 30.21 852 25.16 1.8 35.2 52 -7 19.4
01:20 1023 30.21 852 25.16 1.7 35 54 -6.8 19.8
01:25 1023 30.21 852 25.16 1.6 34.9 54 -6.6 20
01:30 1023 30.21 852 25.16 1.6 34.9 55 -6.6 20.2
01:35 1023 30.21 852 25.16 1.4 34.6 55 -6.7 19.9
01:40 1022 30.18 852 25.16 1.2 34.2 55 -6.9 19.6
01:45 1022 30.18 852 25.16 1.2 34.2 55 -6.8 19.7
01:50 1022 30.18 852 25.16 1.4 34.4 55 -6.8 19.7
01:55 1022 30.18 852 25.16 1.6 34.8 54 -6.8 19.8
02:00 1022 30.18 851 25.13 1.3 34.4 56 -6.6 20.2
02:05 1022 30.18 852 25.16 1 33.9 57 -6.5 20.3
02:10 1022 30.18 852 25.16 1 33.7 57 -6.7 20
02:15 1022 30.18 852 25.16 1 33.7 57 -6.6 20.1
02:20 1022 30.18 852 25.16 1 33.7 56 -6.9 19.5
02:25 1022 30.18 851 25.13 1.2 34.1 54 -7.2 19.1
02:30 1022 30.18 851 25.13 1.3 34.4 54 -7 19.5
02:35 1022 30.18 851 25.13 1.4 34.5 55 -6.7 19.9
02:40 1022 30.18 851 25.13 1.3 34.4 55 -6.7 19.9
02:45 1022 30.18 851 25.13 1.3 34.3 54 -7 19.4
02:50 1022 30.18 851 25.13 1.4 34.4 54 -7 19.5
02:55 1022 30.18 851 25.13 1.4 34.5 54 -6.9 19.6
03:00 1022 30.18 851 25.13 1.4 34.5 55 -6.6 20.2
03:05 1022 30.18 851 25.13 1.5 34.7 55 -6.5 20.3
03:10 1022 30.18 851 25.13 1.8 35.3 54 -6.5 20.2
03:15 1022 30.18 851 25.13 2.1 35.7 53 -6.4 20.4
03:20 1022 30.18 851 25.13 2.4 36.3 53 -6.3 20.7
03:25 1022 30.18 851 25.13 2.3 36.2 54 -6 21.2
03:30 1022 30.18 851 25.13 2 35.6 54 -6.3 20.7
03:35 1022 30.18 851 25.13 1.7 35.1 55 -6.4 20.4
03:40 1022 30.18 851 25.13 2 35.5 54 -6.4 20.5
03:45 1021 30.15 851 25.13 2.2 35.9 53 -6.4 20.4
03:50 1022 30.18 851 25.13 2.2 36 54 -6.2 20.8
03:55 1021 30.15 851 25.13 2 35.6 55 -6 21.1
04:00 1022 30.18 851 25.13 1.8 35.3 56 -5.9 21.3
04:05 1021 30.15 851 25.13 2 35.6 53 -6.5 20.3
04:10 1021 30.15 851 25.13 2.3 36.1 53 -6.3 20.6
04:15 1021 30.15 851 25.13 2.4 36.4 53 -6.1 21
04:20 1021 30.15 851 25.13 2.6 36.6 54 -5.8 21.6
04:25 1021 30.15 851 25.13 2.3 36.1 56 -5.5 22.1
04:30 1021 30.15 850 25.1 2 35.6 56 -5.9 21.4
04:35 1021 30.15 850 25.1 1.9 35.5 56 -5.9 21.3
04:40 1021 30.15 850 25.1 1.7 35.1 58 -5.6 21.9
04:45 1021 30.15 850 25.1 1.7 35 58 -5.7 21.8
04:50 1021 30.15 850 25.1 1.7 35.1 57 -6 21.3
04:55 1021 30.15 851 25.13 2 35.7 55 -6 21.2
05:00 1021 30.15 851 25.13 2.2 36 55 -5.8 21.6
05:05 1021 30.15 851 25.13 2.3 36.2 53 -6.3 20.6
05:10 1021 30.15 851 25.13 2.7 36.9 51 -6.5 20.3
05:15 1021 30.15 851 25.13 2.8 37.1 50 -6.5 20.3
05:20 1021 30.15 851 25.13 2.9 37.1 50 -6.6 20
05:25 1021 30.15 851 25.13 2.9 37.2 49 -6.9 19.7
05:30 1021 30.15 851 25.13 3 37.4 47 -7.3 18.9
05:35 1021 30.15 851 25.13 3.1 37.6 46 -7.3 18.8
05:40 1021 30.15 851 25.13 3.1 37.6 47 -7.1 19.2
05:45 1021 30.15 851 25.13 3.1 37.6 47 -7.2 19
05:50 1021 30.15 851 25.13 3.1 37.7 49 -6.6 20.2
05:55 1021 30.15 851 25.13 3 37.5 51 -6.2 20.9
06:00 1021 30.15 850 25.1 2.6 36.6 55 -5.7 21.8
06:05 1021 30.15 850 25.1 2.2 35.9 54 -6.2 20.9
06:10 1021 30.15 850 25.1 2.3 36.2 51 -6.7 19.9
06:15 1021 30.15 850 25.1 2.6 36.7 50 -6.8 19.8
06:20 1021 30.15 850 25.1 2.6 36.7 52 -6.4 20.6
06:25 1021 30.15 850 25.1 2.7 36.8 51 -6.5 20.4
06:30 1021 30.15 850 25.1 2.9 37.2 49 -6.7 19.9
06:35 1021 30.15 850 25.1 3 37.4 48 -7 19.3
06:40 1021 30.15 850 25.1 3.1 37.6 48 -6.7 19.9
06:45 1021 30.15 850 25.1 3.2 37.7 49 -6.6 20.1
06:50 1021 30.15 850 25.1 3.2 37.8 49 -6.4 20.4
06:55 1021 30.15 850 25.1 3.3 38 49 -6.3 20.7
07:00 1021 30.15 850 25.1 3.3 38 50 -6.1 21
07:05 1021 30.15 850 25.1 3.3 37.9 48 -6.7 19.9
07:10 1021 30.15 850 25.1 3.5 38.2 49 -6.3 20.7
07:15 1021 30.15 850 25.1 3.6 38.5 47 -6.8 19.8
07:20 1021 30.15 850 25.1 3.7 38.7 45 -7 19.4
07:25 1021 30.15 850 25.1 3.7 38.7 43 -7.7 18.2
07:30 1021 30.15 850 25.1 3.9 39.1 46 -6.7 19.9
07:35 1021 30.15 850 25.1 3.8 38.9 46 -6.8 19.7
07:40 1021 30.15 850 25.1 3.8 38.8 47 -6.6 20.1
07:45 1021 30.15 850 25.1 3.9 39 45 -6.9 19.7
07:50 1021 30.15 850 25.1 3.9 39.1 44 -7.3 18.9
07:55 1021 30.15 850 25.1 4 39.3 44 -7.1 19.2
08:00 1021 30.15 850 25.1 4.1 39.3 43 -7.5 18.6
08:05 1021 30.15 850 25.1 4.1 39.3 43 -7.4 18.7
08:10 1021 30.15 850 25.1 4 39.2 44 -7.1 19.3
08:15 1021 30.15 850 25.1 4 39.2 46 -6.7 19.9
08:20 1021 30.15 850 25.1 4 39.2 44 -7.1 19.1
08:25 1021 30.15 850 25.1 4 39.3 43 -7.4 18.7
08:30 1021 30.15 850 25.1 4.1 39.5 43 -7.4 18.7
08:35 1021 30.15 850 25.1 4.1 39.5 42 -7.8 18
08:40 1020 30.12 850 25.1 4.4 39.8 41 -7.6 18.3
08:45 1020 30.12 849 25.07 4.7 40.5 42 -7 19.3
08:50 1020 30.12 849 25.07 4.9 40.9 43 -6.7 19.9
08:55 1020 30.12 849 25.07 5.2 41.4 42 -6.6 20
09:00 1020 30.12 850 25.1 5.5 41.9 41 -6.7 19.9
09:05 1021 30.15 850 25.1 4.4 39.8 44 -6.9 19.6
09:10 1021 30.15 850 25.1 4.3 39.7 43 -7.3 18.9
09:15 1020 30.12 850 25.1 4.7 40.4 42 -7.2 19.1
09:20 1020 30.12 850 25.1 5.5 42 38 -7.7 18.2
09:25 1021 30.15 850 25.1 6.5 43.7 37 -7.1 19.1
09:30 1021 30.15 850 25.1 6.7 44.1 37 -6.8 19.7
09:35 1021 30.15 850 25.1 6.9 44.4 36 -7.2 19
09:40 1021 30.15 850 25.1 7.2 44.9 36 -6.9 19.6
09:45 1021 30.15 850 25.1 7.3 45.2 36 -6.9 19.6
09:50 1021 30.15 850 25.1 7.4 45.3 36 -6.7 19.9
09:55 1021 30.15 850 25.1 7.4 45.3 36 -6.8 19.8
10:00 1021 30.15 850 25.1 7.4 45.3 36 -6.7 19.9
10:05 1021 30.15 850 25.1 7.3 45.1 36 -6.7 19.9
10:10 1021 30.15 850 25.1 7.4 45.3 35 -6.9 19.6
10:15 1021 30.15 850 25.1 7.6 45.6 34 -7.4 18.7
10:20 1021 30.15 850 25.1 7.8 46 34 -7.1 19.3
10:25 1021 30.15 850 25.1 8 46.5 34 -6.7 19.9
10:30 1021 30.15 850 25.1 8.2 46.8 34 -6.7 19.9
10:35 1021 30.15 850 25.1 8.6 47.4 33 -6.8 19.8
10:40 1021 30.15 850 25.1 8.8 47.8 33 -6.5 20.2
10:45 1021 30.15 850 25.1 9 48.2 33 -6.5 20.4
10:50 1021 30.15 850 25.1 8.9 48 34 -6.3 20.7
10:55 1021 30.15 850 25.1 8.9 48 33 -6.4 20.4
11:00 1021 30.15 850 25.1 8.8 47.8 33 -6.4 20.4
11:05 1021 30.15 850 25.1 8.9 47.9 33 -6.5 20.4
11:10 1021 30.15 850 25.1 9.2 48.5 32 -6.5 20.3
11:15 1021 30.15 850 25.1 9.5 49.1 31 -6.7 20
11:20 1021 30.15 850 25.1 9.6 49.3 32 -6.4 20.4
11:25 1021 30.15 850 25.1 9.9 49.8 32 -6.1 21
11:30 1021 30.15 850 25.1 10.2 50.4 31 -6 21.2
11:35 1020 30.12 850 25.1 10.7 51.2 31 -5.9 21.4
11:40 1020 30.12 850 25.1 10.7 51.2 31 -5.6 21.8
11:45 1020 30.12 850 25.1 10.3 50.5 31 -6 21.2
11:50 1020 30.12 850 25.1 10.1 50.2 32 -5.8 21.6
11:55 1020 30.12 850 25.1 10 50 32 -5.8 21.5
12:00 1020 30.12 850 25.1 10 50.1 32 -5.8 21.5
12:05 1020 30.12 850 25.1 10.4 50.6 32 -5.8 21.6
12:10 1020 30.12 850 25.1 10.2 50.4 33 -5.4 22.2
12:15 1020 30.12 849 25.07 9.9 49.9 32 -5.9 21.3
12:20 1020 30.12 849 25.07 9.8 49.6 32 -6 21.1
12:25 1020 30.12 849 25.07 10.1 50.3 31 -6.2 20.8
12:30 1020 30.12 849 25.07 10.7 51.2 30 -6.3 20.6
12:35 1020 30.12 849 25.07 10.8 51.4 29 -6.6 20.2
12:40 1020 30.12 849 25.07 11.2 52.1 28 -6.5 20.2
12:45 1020 30.12 849 25.07 11.4 52.6 28 -6.3 20.6
12:50 1020 30.12 849 25.07 12 53.5 27 -6.5 20.3
12:55 1020 30.12 849 25.07 12 53.7 28 -5.9 21.4
13:00 1020 30.12 849 25.07 12.4 54.3 27 -6.2 20.8
13:05 1020 30.12 849 25.07 12.8 55 26 -6 21.1
13:10 1020 30.12 849 25.07 13.1 55.6 27 -5.5 22.1
13:15 1020 30.12 849 25.07 12.7 54.9 27 -6 21.3
13:20 1020 30.12 849 25.07 13.6 56.5 24 -6.5 20.3
13:25 1019 30.09 849 25.07 14.1 57.4 23 -6.7 19.9
13:30 1020 30.12 849 25.07 13.8 56.9 23 -6.9 19.6
13:35 1020 30.12 849 25.07 13.5 56.3 24 -6.8 19.8
13:40 1019 30.09 849 25.07 13.4 56.1 25 -6 21.1
13:45 1019 30.09 849 25.07 13.2 55.7 25 -6.3 20.7
13:50 1019 30.09 848 25.04 12.9 55.3 25 -6.7 20
13:55 1019 30.09 848 25.04 13 55.3 25 -6.7 20
14:00 1019 30.09 848 25.04 13.2 55.8 26 -6 21.2
14:05 1019 30.09 848 25.04 13.4 56.1 24 -6.8 19.7
14:10 1019 30.09 848 25.04 13.3 56 23 -7.1 19.2
14:15 1019 30.09 848 25.04 13.4 56.1 24 -7 19.4
14:20 1019 30.09 848 25.04 13.8 56.9 23 -6.7 20
14:25 1019 30.09 848 25.04 13.6 56.5 23 -7.4 18.7
14:30 1018 30.06 848 25.04 13.3 55.9 24 -7 19.3
14:35 1018 30.06 848 25.04 13.3 55.9 24 -6.8 19.8
14:40 1018 30.06 847 25.01 13.2 55.8 23 -7.2 19.1
14:45 1018 30.06 847 25.01 13.5 56.3 23 -7.5 18.6
14:50 1018 30.06 847 25.01 13.8 56.8 23 -7 19.3
14:55 1018 30.06 847 25.01 13.6 56.5 24 -6.7 19.9
15:00 1018 30.06 848 25.04 14 57.1 23 -6.6 20.1
15:05 1018 30.06 848 25.04 13.8 56.8 22 -7.3 18.8
15:10 1018 30.06 847 25.01 13.8 56.9 23 -7.1 19.3
15:15 1018 30.06 847 25.01 14 57.3 22 -7.4 18.7
15:20 1018 30.06 847 25.01 14.1 57.4 22 -7.1 19.2
15:25 1018 30.06 847 25.01 14.2 57.5 22 -7 19.4
15:30 1018 30.06 847 25.01 14.2 57.5 22 -7 19.5
15:35 1018 30.06 847 25.01 14 57.1 23 -6.9 19.5
15:40 1018 30.06 847 25.01 13.8 56.8 24 -6.5 20.2
15:45 1018 30.06 847 25.01 13.7 56.6 23 -6.8 19.8
15:50 1018 30.06 847 25.01 13.8 56.8 24 -6.4 20.4
15:55 1018 30.06 847 25.01 13.9 56.9 24 -6.3 20.6
16:00 1018 30.06 847 25.01 13.9 57 24 -6.1 20.9
16:05 1018 30.06 847 25.01 13.8 56.8 24 -6.1 21
16:10 1017 30.03 847 25.01 13.8 56.9 24 -6.1 21
16:15 1018 30.06 847 25.01 13.8 56.8 24 -6.4 20.6
16:20 1018 30.06 847 25.01 13.7 56.6 24 -6.7 19.9
16:25 1018 30.06 847 25.01 13.6 56.4 23 -7 19.5
16:30 1018 30.06 847 25.01 13.4 56.2 24 -6.8 19.8
16:35 1018 30.06 847 25.01 13.5 56.2 24 -6.5 20.3
16:40 1018 30.06 847 25.01 13.5 56.2 24 -6.5 20.4
16:45 1018 30.06 847 25.01 13.5 56.2 24 -6.6 20.1
16:50 1018 30.06 847 25.01 13.5 56.3 25 -6.3 20.7
16:55 1018 30.06 847 25.01 13.5 56.3 25 -6 21.2
17:00 1018 30.06 847 25.01 13.6 56.4 25 -6 21.2
17:05 1017 30.03 847 25.01 13.7 56.7 24 -6.5 20.3
17:10 1017 30.03 847 25.01 13.9 57 23 -6.7 19.9
17:15 1017 30.03 847 25.01 13.9 57 24 -6.5 20.4
17:20 1017 30.03 847 25.01 13.8 56.8 25 -5.8 21.5
17:25 1017 30.03 847 25.01 13.6 56.4 24 -6.6 20.1
17:30 1017 30.03 847 25.01 13.7 56.6 23 -6.8 19.7
17:35 1017 30.03 847 25.01 13.6 56.5 24 -6.4 20.4
17:40 1017 30.03 846 24.98 13.5 56.2 24 -6.7 20
17:45 1017 30.03 846 24.98 13.4 56.2 24 -6.9 19.5
17:50 1017 30.03 846 24.98 13.4 56.2 24 -6.6 20.1
17:55 1017 30.03 846 24.98 13.4 56.1 24 -6.9 19.5
18:00 1017 30.03 846 24.98 13.4 56.1 24 -6.5 20.3
18:05 1017 30.03 846 24.98 13.2 55.8 25 -6.4 20.4
18:10 1017 30.03 846 24.98 13.1 55.5 24 -6.8 19.8
18:15 1017 30.03 846 24.98 13.2 55.7 25 -6.6 20.1
18:20 1017 30.03 846 24.98 13.1 55.7 25 -6.3 20.6
18:25 1017 30.03 846 24.98 13.1 55.5 25 -6.3 20.7
18:30 1017 30.03 846 24.98 13 55.5 25 -6.4 20.4
18:35 1017 30.03 846 24.98 13.1 55.5 25 -6.2 20.8
18:40 1017 30.03 846 24.98 13 55.4 26 -6.3 20.7
18:45 1017 30.03 846 24.98 13 55.4 26 -6.2 20.8
18:50 1017 30.03 846 24.98 12.9 55.3 26 -6.1 21
18:55 1017 30.03 846 24.98 12.9 55.1 26 -6.3 20.7
19:00 1017 30.03 846 24.98 12.8 55.1 25 -6.6 20.1
19:05 1017 30.03 846 24.98 12.8 55 25 -6.9 19.6
19:10 1017 30.03 846 24.98 12.7 54.9 25 -6.8 19.8
19:15 1017 30.03 846 24.98 12.7 54.8 25 -6.7 19.9
19:20 1017 30.03 846 24.98 12.7 54.8 25 -6.6 20.1
19:25 1017 30.03 846 24.98 12.5 54.5 26 -6.2 20.8
19:30 1017 30.03 846 24.98 12.3 54.2 27 -5.9 21.5
19:35 1017 30.03 846 24.98 12.2 53.9 28 -5.8 21.6
19:40 1017 30.03 846 24.98 12 53.6 29 -5.7 21.8
19:45 1017 30.03 846 24.98 11.8 53.3 29 -5.5 22.1
19:50 1017 30.03 846 24.98 11.7 53.1 30 -5.3 22.4
19:55 1017 30.03 846 24.98 11.5 52.8 30 -5.3 22.4
20:00 1017 30.03 846 24.98 11.4 52.5 31 -5.3 22.5
20:05 1017 30.03 846 24.98 11.4 52.4 30 -5.5 22
20:10 1017 30.03 846 24.98 11.4 52.4 31 -5.2 22.6
20:15 1017 30.03 846 24.98 11.2 52.1 32 -5 23
20:20 1017 30.03 846 24.98 11 51.8 33 -4.7 23.5
20:25 1017 30.03 846 24.98 10.8 51.4 33 -4.9 23.2
20:30 1017 30.03 846 24.98 10.6 51.1 34 -4.8 23.4
20:35 1017 30.03 846 24.98 10.5 50.8 35 -4.4 24
20:40 1017 30.03 847 25.01 10.3 50.6 35 -4.4 24.2
20:45 1017 30.03 847 25.01 10.2 50.4 36 -4.2 24.4
20:50 1017 30.03 847 25.01 10.1 50.1 37 -4.1 24.6
20:55 1017 30.03 847 25.01 10 50 37 -3.9 24.9
21:00 1017 30.03 847 25.01 9.9 49.8 38 -3.9 25.1
21:05 1018 30.06 847 25.01 9.6 49.2 41 -3.1 26.5
21:10 1018 30.06 847 25.01 9 48.2 41 -3.5 25.6
21:15 1018 30.06 847 25.01 9 48.2 41 -3.5 25.7
21:20 1017 30.03 847 25.01 8.9 48 42 -3.1 26.3
21:25 1017 30.03 847 25.01 8.4 47.1 45 -2.8 26.9
21:30 1018 30.06 847 25.01 8 46.5 45 -3.3 26
21:35 1018 30.06 847 25.01 8 46.4 46 -2.9 26.7
21:40 1018 30.06 847 25.01 8 46.4 44 -3.5 25.7
21:45 1018 30.06 847 25.01 8.1 46.7 43 -3.6 25.6
21:50 1018 30.06 847 25.01 8.3 47 42 -3.8 25.1
21:55 1018 30.06 847 25.01 8.7 47.6 40 -4.3 24.3
22:00 1018 30.06 847 25.01 8.9 48 40 -4.1 24.6
22:05 1018 30.06 847 25.01 8.9 48 40 -3.9 25
22:10 1018 30.06 847 25.01 8.8 47.8 40 -4 24.9
22:15 1018 30.06 847 25.01 8.8 47.8 41 -3.8 25.1
22:20 1018 30.06 847 25.01 8.8 47.8 39 -4.4 24.1
22:25 1018 30.06 847 25.01 8.9 48 39 -4.3 24.2
22:30 1018 30.06 847 25.01 9 48.2 39 -4.3 24.3
22:35 1018 30.06 847 25.01 8.9 48.1 40 -4.1 24.6
22:40 1018 30.06 847 25.01 8.8 47.9 40 -4.1 24.6
22:45 1018 30.06 847 25.01 8.7 47.6 41 -4 24.9
22:50 1018 30.06 847 25.01 8.5 47.3 41 -3.9 25
22:55 1018 30.06 847 25.01 8.4 47 42 -3.8 25.1
23:00 1018 30.06 847 25.01 8.3 46.9 42 -3.8 25.1
23:05 1018 30.06 848 25.04 8.2 46.7 42 -3.8 25.1
23:10 1018 30.06 848 25.04 8.1 46.5 43 -3.8 25.2
23:15 1018 30.06 847 25.01 7.9 46.2 44 -3.7 25.3
23:20 1018 30.06 848 25.04 7.9 46.3 43 -4 24.9
23:25 1018 30.06 848 25.04 8 46.4 43 -3.8 25.1
23:30 1018 30.06 848 25.04 7.9 46.3 43 -3.8 25.2
23:35 1018 30.06 848 25.04 7.9 46.2 43 -3.9 24.9
23:40 1018 30.06 848 25.04 8 46.3 42 -4.1 24.7
23:45 1018 30.06 848 25.04 8 46.4 43 -3.8 25.2
23:50 1019 30.09 848 25.04 7.8 46 46 -3 26.6
23:55 1018 30.06 848 25.04 7.4 45.2 47 -3.3 26
24:00 1019 30.09 848 25.04 7.4 45.2 46 -3.4 25.9